Alma, Mississippi
Current Conditions -  °F | °C
As of 10:53 AM on Saturday 25 Oct 2014 (Local Time) from KTUP Reporting Station
Clear Clear  
Wind Chill: 22°   Ceiling: Unl
Heat Index: 22°   Visibility: 10mi
Dew Point: 14°   Wind: 6mph
Humidity: 61%   Direction: NA
Pressure: 30.12"   Gusts: NA
Location:  34.433°N, 88.7018°W
Report Text: KTUP 251553Z VRB05KT 10SM CLR 22/14 A3012 RMK AO2 SLP197 T02220144 $
Loading
Personal Weather Stations






























Interactive Weather Map
Tropical Storm Tracking
New forecast layout! Learn more

10-Day Weather Forecast

Advertisements
Track Severe Weather on mobile